Share

Bannock, OH

9:05 AM EDT on April 24, 2014 (GMT -0400)
Crawford Heights (KOHMARTI3) Elev 1109 ft | 40.09 °N, 80.75 °W | Change Station

Current weather conditions updated 15 minutes ago

Scattered Clouds
Scattered Clouds
38.8 °F
Feels Like 39 °F
N
1.7
Wind Variable Wind from ESE
Sunrise 6:32 AM
Sunset 8:11 PM
Moon Waning Crescent

Today is forecast to be Much Warmer than yesterday.

Pressure 30.19 in
Visibility 10.0 miles
Clouds Scattered Clouds 12000 ft
Windchill 39 °F
Dew Point 27 °F
Humidity 63%
Rainfall 0.00 in
Snow Depth Not available.
UV 2 out of 16
Pollen 9.60 out of 12
Air Quality Not available.
Flu Activity Local Activity
METAR KAFJ 241255Z AUTO 00000KT 10SM SCT120 02/M05 A3019 RMK AO1

More Conditions Fewer Conditions

Pressure 30.19 in
Visibility 10.0 miles
Clouds Scattered Clouds 12000 ft
Windchill 39 °F
Dew Point 27 °F
Humidity 63%
Rainfall 0.00 in
Snow Depth Not available.
UV 2 out of 16
Pollen 9.60 out of 12
Air Quality Not available.
Flu Activity Local Activity
METAR KAFJ 241255Z AUTO 00000KT 10SM SCT120 02/M05 A3019 RMK AO1

More Conditions Fewer Conditions

10-Day Weather Forecast

Almanac

Astronomy

Apr. 24, 2014 Rise Set
Actual Time 6:32 AM EDT 8:11 PM EDT
Civil Twilight 6:04 AM EDT 8:40 PM EDT
Nautical Twilight 5:29 AM EDT 9:15 PM EDT
Astronomical Twilight 4:52 AM EDT 9:52 PM EDT
Moon 3:43 AM EDT 3:25 PM EDT
Length of Visible Light 14h 36m
Length of Day
13h 38m
Tomorrow will be 2m 23s longer.
Waning Crescent, 26% of the Moon is Illuminated
Today
Waning Crescent
Apr 29
New
May 6
First Quarter
May 14
Full
May 21
Last Quarter

Today's Extremes

State Highs State Lows

Community

  • Stacked
    Stacked
  • clouds approaching Red Sox Nation
    clouds approaching Red Sox Nation
  • Balance
    Balance
  • Citysky
    Citysky
  • Nestled In
    Nestled In

WunderPhotos

Upload Photos

1,704,596 photos uploaded!

Nearby

Snow Depth

Station Depth Elevation
No new snow has been reported.

Coastal Water Temperatures

Place Temperature
No Stations Reporting

Earthquake Activity

City Distance Mag. Time & Date
No recent earthquake activity has been reported nearby.
Minimum magnitude displayed is 2.5.

Nearby Weather Stations

Station Location Temp. Windchill Dew Point Humidity Wind Precip. Elev Updated Type
Crawford Heights, Martins Ferry, OH 38.8 °F 39 °F 27 °F 63% ESE  at  1.7 mph - / hr 1109 ft 8:50 AM EDT Normal
Whitmar Hills, Wheeling, WV 36.8 °F 37 °F 27 °F 67% ENE  at  0.0 mph 0.00 in / hr 1060 ft 9:00 AM EDT Normal
Sunset Gardens, Wintersville, OH 38.0 °F 38 °F 25 °F 59% NNE  at  1.0 mph 0.00 in / hr 1150 ft 9:00 AM EDT Normal
West Alexander, West Alexander, PA 37.9 °F 38 °F 27 °F 65% SSW  at  2.7 mph - / hr 1191 ft 8:58 AM EDT Normal

Show More Stations Show Fewer Stations

What do you think?

We're not finished. Please let us know what you like, what you don't like, and what you are still missing.